Time;durP1;ratioP1;P1;durP2;ratioP2;P2;SDS_P1;SDS_P2;PMS_P1;PMS_P2;Temp;Humidity;BMP_temperature;BMP_pressure;BME280_temperature;BME280_humidity;BME280_pressure;Samples;Min_cycle;Max_cycle;Signal;HPM_P1;HPM_P2
2021/08/06 00:00:20;;;;;;;4.70;2.02;;;;;;;20.69;67.11;98809.91;361022;149;865690;-62
2021/08/06 00:01:21;;;;;;;5.79;2.09;;;;;;;20.69;67.23;98815.17;362569;146;857368;-62
2021/08/06 00:02:23;;;;;;;4.36;2.04;;;;;;;20.68;67.14;98798.57;361000;145;864752;-63
2021/08/06 00:03:25;;;;;;;5.19;2.58;;;;;;;20.69;67.16;98810.77;361185;146;857267;-61
2021/08/06 00:04:27;;;;;;;3.84;1.79;;;;;;;20.69;66.86;98807.28;361108;146;866338;-63
2021/08/06 00:05:28;;;;;;;7.79;2.02;;;;;;;20.69;67.11;98813.41;361003;145;866608;-62
2021/08/06 00:06:31;;;;;;;4.66;1.93;;;;;;;20.69;67.06;98818.66;361168;149;864760;-62
2021/08/06 00:07:33;;;;;;;5.74;1.94;;;;;;;20.70;67.03;98816.86;347058;154;857262;-61
2021/08/06 00:08:35;;;;;;;3.08;1.39;;;;;;;20.72;67.01;98812.34;349990;149;864821;-61
2021/08/06 00:09:37;;;;;;;8.33;1.74;;;;;;;20.75;66.76;98817.39;361122;145;858067;-64
2021/08/06 00:10:39;;;;;;;7.51;2.00;;;;;;;20.74;66.56;98813.07;361007;148;859332;-64
2021/08/06 00:11:41;;;;;;;5.73;1.86;;;;;;;20.72;66.54;98815.82;361070;146;865833;-64
2021/08/06 00:12:43;;;;;;;5.75;2.05;;;;;;;20.70;66.79;98820.34;361169;145;865815;-63
2021/08/06 00:13:44;;;;;;;6.74;2.11;;;;;;;20.69;66.97;98816.03;361659;145;865264;-64
2021/08/06 00:14:46;;;;;;;5.56;2.01;;;;;;;20.69;67.13;98823.06;361193;148;866518;-63
2021/08/06 00:15:48;;;;;;;5.65;2.34;;;;;;;20.68;67.15;98819.61;362932;146;864779;-64
2021/08/06 00:16:51;;;;;;;6.15;2.61;;;;;;;;;;361777;145;857211;-63
2021/08/06 00:17:53;;;;;;;4.45;2.29;;;;;;;;;;361198;149;858722;-63
2021/08/06 00:18:54;;;;;;;7.41;2.52;;;;;;;;;;361777;146;857240;-62
2021/08/06 00:19:56;;;;;;;6.24;2.66;;;;;;;;;;362930;145;857310;-62
2021/08/06 00:20:58;;;;;;;7.44;2.26;;;;;;;;;;361057;145;857710;-62
2021/08/06 00:21:59;;;;;;;10.90;3.02;;;;;;;;;;361044;149;857221;-62
2021/08/06 00:23:02;;;;;;;6.61;2.46;;;;;;;;;;360955;146;857305;-62
2021/08/06 00:24:04;;;;;;;5.49;2.44;;;;;;;;;;363865;145;857305;-61
2021/08/06 00:25:06;;;;;;;9.02;2.56;;;;;;;;;;367880;146;857244;-62
2021/08/06 00:26:08;;;;;;;5.93;2.41;;;;;;;;;;362314;146;857215;-61
2021/08/06 00:27:10;;;;;;;6.65;2.51;;;;;;;;;;361999;145;865401;-61
2021/08/06 00:28:12;;;;;;;7.86;2.34;;;;;;;;;;361091;149;864697;-60
2021/08/06 00:29:13;;;;;;;8.19;2.14;;;;;;;;;;361084;149;857214;-61
2021/08/06 00:30:15;;;;;;;6.42;3.04;;;;;;;;;;361025;145;866597;-62
2021/08/06 00:31:17;;;;;;;7.11;2.86;;;;;;;;;;363158;145;857382;-63
2021/08/06 00:32:18;;;;;;;10.84;3.40;;;;;;;;;;361084;149;857247;-65
2021/08/06 00:33:20;;;;;;;4.84;2.40;;;;;;;;;;362441;146;865687;-62
2021/08/06 00:34:21;;;;;;;6.10;1.97;;;;;;;;;;361333;145;859027;-60
2021/08/06 00:35:23;;;;;;;4.43;2.13;;;;;;;;;;361530;146;858794;-61
2021/08/06 00:36:25;;;;;;;3.95;2.21;;;;;;;;;;361173;148;860503;-61
2021/08/06 00:37:26;;;;;;;6.71;1.87;;;;;;;;;;363981;145;864697;-61
2021/08/06 00:38:28;;;;;;;4.44;1.97;;;;;;;;;;364452;145;857302;-61
2021/08/06 00:39:29;;;;;;;8.79;2.46;;;;;;;;;;364899;146;857229;-61
2021/08/06 00:40:32;;;;;;;4.98;1.71;;;;;;;;;;361275;149;857245;-60
2021/08/06 00:41:34;;;;;;;3.10;1.30;;;;;;;;;;363698;145;864638;-61
2021/08/06 00:42:35;;;;;;;5.70;1.82;;;;;;;;;;361231;146;867236;-60
2021/08/06 00:43:37;;;;;;;7.16;1.64;;;;;;;;;;361465;146;865019;-61
2021/08/06 00:44:39;;;;;;;4.46;1.69;;;;;;;;;;361840;145;857336;-61
2021/08/06 00:45:41;;;;;;;2.53;1.46;;;;;;;;;;361079;145;864835;-61
2021/08/06 00:46:43;;;;;;;4.69;1.61;;;;;;;;;;361600;146;858321;-60
2021/08/06 00:47:44;;;;;;;5.29;1.59;;;;;;;;;;361219;146;856982;-60
2021/08/06 00:48:49;;;;;;;4.51;1.39;;;;;;;;;;361893;145;857168;-62
2021/08/06 00:49:51;;;;;;;3.51;1.66;;;;;;;;;;360962;146;857637;-62
2021/08/06 00:50:53;;;;;;;5.93;1.74;;;;;;;;;;361760;146;857444;-63
2021/08/06 00:51:55;;;;;;;5.09;1.48;;;;;;;;;;356912;147;858384;-63
2021/08/06 00:52:56;;;;;;;3.21;1.52;;;;;;;;;;357356;148;858189;-63
2021/08/06 00:53:58;;;;;;;6.14;1.55;;;;;;;;;;362602;148;858973;-62
2021/08/06 00:55:00;;;;;;;4.63;2.05;;;;;;;;;;361729;146;859846;-63
2021/08/06 00:56:01;;;;;;;5.26;1.89;;;;;;;;;;361690;146;858726;-62
2021/08/06 00:57:04;;;;;;;2.29;1.38;;;;;;;;;;360995;145;865815;-62
2021/08/06 00:58:05;;;;;;;5.78;1.59;;;;;;;;;;356739;151;864902;-62
2021/08/06 00:59:07;;;;;;;4.88;1.53;;;;;;;;;;357170;148;857206;-62
2021/08/06 01:00:09;;;;;;;4.53;1.89;;;;;;;;;;363161;145;857240;-63
2021/08/06 01:01:11;;;;;;;7.75;2.01;;;;;;;;;;362869;146;857272;-62
2021/08/06 01:02:23;;;;;;;2.72;1.05;;;;;;;;;;361099;149;858135;-62
2021/08/06 01:03:26;;;;;;;2.36;1.17;;;;;;;;;;346922;152;860441;-62
2021/08/06 01:04:50;;;;;;;7.67;1.47;;;;;;;;;;346982;152;859024;-62
2021/08/06 01:05:52;;;;;;;2.85;1.29;;;;;;;;;;362221;146;858833;-61
2021/08/06 01:06:56;;;;;;;3.08;1.52;;;;;;;;;;362079;145;857172;-62
2021/08/06 01:08:02;;;;;;;1.75;0.92;;;;;;;;;;360416;145;857261;-62
2021/08/06 01:09:11;;;;;;;4.33;1.19;;;;;;;;;;361038;149;857381;-61
2021/08/06 01:10:14;;;;;;;4.87;1.25;;;;;;;;;;360822;146;857797;-62
2021/08/06 01:11:16;;;;;;;3.07;1.45;;;;;;;;;;358410;148;858804;-61
2021/08/06 01:12:23;;;;;;;1.91;0.95;;;;;;;;;;361326;146;859134;-61
2021/08/06 01:13:25;;;;;;;1.49;1.03;;;;;;;;;;366639;146;857221;-60
2021/08/06 01:14:27;;;;;;;5.87;1.42;;;;;;;;;;361448;145;857284;-61
2021/08/06 01:15:29;;;;;;;2.98;1.51;;;;;;;;;;361145;148;857238;-61
2021/08/06 01:16:31;;;;;;;6.57;2.21;;;;;;;;;;361283;149;857418;-60
2021/08/06 01:17:33;;;;;;;8.65;1.49;;;;;;;;;;362017;146;858100;-60
2021/08/06 01:18:36;;;;;;;8.17;1.61;;;;;;;;;;361546;146;857185;-61
2021/08/06 01:19:48;;;;;;;5.19;1.77;;;;;;;;;;361177;149;859044;-61
2021/08/06 01:20:53;;;;;;;5.58;1.64;;;;;;;;;;360893;145;857391;-61
2021/08/06 01:33:59;;;;;;;2.65;0.95;;;;;;;20.21;67.92;98510.89;378794;141;881487;-61
2021/08/06 01:35:01;;;;;;;3.53;0.99;;;;;;;20.25;67.46;98555.26;368385;144;857345;-60
2021/08/06 01:36:04;;;;;;;1.29;0.72;;;;;;;20.34;66.74;98589.73;366548;144;857352;-60
2021/08/06 01:37:06;;;;;;;4.74;1.47;;;;;;;20.31;66.54;98596.02;369190;144;857408;-60
2021/08/06 01:38:09;;;;;;;5.90;1.16;;;;;;;20.40;66.75;98592.75;369009;145;857258;-60
2021/08/06 01:39:10;;;;;;;3.14;1.51;;;;;;;20.29;67.34;98587.41;363369;143;864579;-60
2021/08/06 01:40:14;;;;;;;3.82;1.59;;;;;;;20.34;67.40;98587.09;368924;143;857401;-61
2021/08/06 01:41:25;;;;;;;2.81;1.44;;;;;;;20.42;67.60;98576.88;369592;145;857219;-61
2021/08/06 01:42:47;;;;;;;5.24;1.30;;;;;;;20.37;66.90;98569.30;364468;145;857312;-61
2021/08/06 01:44:11;;;;;;;4.07;1.31;;;;;;;20.41;67.10;98555.00;366180;144;857365;-61
2021/08/06 01:45:15;;;;;;;6.53;1.25;;;;;;;20.29;67.57;98571.64;364774;146;858560;-60
2021/08/06 01:46:22;;;;;;;3.97;1.46;;;;;;;20.29;68.27;98579.52;361081;147;857299;-61
2021/08/06 01:47:30;;;;;;;3.95;1.80;;;;;;;20.28;68.41;98578.70;357728;146;858998;-60
2021/08/06 01:48:36;;;;;;;3.61;1.37;;;;;;;20.21;68.54;98592.36;365283;146;857177;-61
2021/08/06 01:49:48;;;;;;;4.28;1.68;;;;;;;20.16;69.04;98595.33;367469;146;858610;-60
2021/08/06 01:50:50;;;;;;;4.54;1.74;;;;;;;20.13;69.25;98606.87;364699;144;857177;-61
2021/08/06 01:52:05;;;;;;;4.04;1.44;;;;;;;20.06;69.56;98615.27;366418;145;857890;-60
2021/08/06 01:53:08;;;;;;;4.89;1.36;;;;;;;19.99;68.83;98622.75;367889;146;865473;-60
2021/08/06 01:54:13;;;;;;;3.02;1.41;;;;;;;20.02;68.55;98633.05;367966;144;858866;-60
2021/08/06 01:55:16;;;;;;;4.58;1.11;;;;;;;20.10;68.56;98640.38;368923;144;859511;-59
2021/08/06 01:56:19;;;;;;;2.42;1.46;;;;;;;20.10;68.56;98640.38;367558;144;866549;-60
2021/08/06 01:57:21;;;;;;;2.27;1.37;;;;;;;20.16;68.21;98579.56;368167;146;857182;-60
2021/08/06 01:58:23;;;;;;;5.21;1.61;;;;;;;;;;368423;144;858279;-60
2021/08/06 01:59:25;;;;;;;3.55;1.43;;;;;;;;;;365166;146;857285;-61
2021/08/06 02:00:27;;;;;;;4.30;1.43;;;;;;;;;;364150;145;865325;-60
2021/08/06 02:01:29;;;;;;;8.28;1.61;;;;;;;;;;367000;144;864684;-60
2021/08/06 02:02:31;;;;;;;3.48;1.12;;;;;;;;;;365937;144;859086;-61
2021/08/06 02:03:33;;;;;;;4.36;1.38;;;;;;;;;;360320;148;864505;-60
2021/08/06 02:04:35;;;;;;;4.01;1.24;;;;;;;;;;363455;144;858948;-60
2021/08/06 02:05:36;;;;;;;3.61;1.64;;;;;;;;;;368486;145;857476;-61
2021/08/06 02:06:39;;;;;;;4.61;1.41;;;;;;;;;;368006;145;864910;-61
2021/08/06 02:07:40;;;;;;;3.51;1.24;;;;;;;;;;366722;145;858340;-60
2021/08/06 02:08:42;;;;;;;4.58;2.06;;;;;;;;;;363964;144;860103;-60
2021/08/06 02:09:43;;;;;;;4.17;1.13;;;;;;;;;;367149;144;859026;-60
2021/08/06 02:10:46;;;;;;;2.60;1.25;;;;;;;;;;368104;145;859862;-60
2021/08/06 02:11:47;;;;;;;4.38;1.12;;;;;;;;;;369187;144;859369;-60
2021/08/06 02:12:49;;;;;;;2.79;1.05;;;;;;;;;;367116;144;864328;-61
2021/08/06 02:13:51;;;;;;;3.59;1.17;;;;;;;;;;365924;144;857177;-61
2021/08/06 02:14:52;;;;;;;2.97;1.11;;;;;;;;;;361882;146;859052;-60
2021/08/06 02:15:54;;;;;;;4.23;1.19;;;;;;;;;;366234;144;859097;-62
2021/08/06 02:16:56;;;;;;;2.04;1.35;;;;;;;;;;365435;146;857833;-60
2021/08/06 02:17:57;;;;;;;3.03;0.87;;;;;;;;;;357100;148;858814;-60
2021/08/06 02:18:59;;;;;;;4.41;1.27;;;;;;;;;;368564;146;857399;-59
2021/08/06 02:20:01;;;;;;;3.46;0.82;;;;;;;;;;367204;146;857778;-60
2021/08/06 02:21:07;;;;;;;3.65;1.22;;;;;;;;;;366774;145;857321;-60
2021/08/06 02:22:09;;;;;;;2.93;0.91;;;;;;;;;;366944;146;859101;-62
2021/08/06 02:23:10;;;;;;;1.86;0.91;;;;;;;;;;364671;144;857141;-60
2021/08/06 02:24:12;;;;;;;2.00;1.33;;;;;;;;;;367189;144;866076;-60
2021/08/06 02:25:14;;;;;;;5.25;1.28;;;;;;;;;;362806;144;858502;-61
2021/08/06 02:26:17;;;;;;;2.71;1.45;;;;;;;;;;367619;144;858534;-60
2021/08/06 02:27:19;;;;;;;2.34;1.17;;;;;;;;;;365163;146;858809;-60
2021/08/06 02:28:21;;;;;;;4.14;1.43;;;;;;;;;;366871;144;857221;-60
2021/08/06 02:29:23;;;;;;;2.02;0.89;;;;;;;;;;364607;146;857366;-59
2021/08/06 02:30:26;;;;;;;4.03;1.10;;;;;;;;;;369333;145;859795;-59
2021/08/06 02:31:27;;;;;;;3.77;1.04;;;;;;;;;;366315;144;857782;-60
2021/08/06 02:32:29;;;;;;;2.25;0.91;;;;;;;;;;363098;146;858561;-60
2021/08/06 02:33:30;;;;;;;4.96;1.91;;;;;;;;;;363253;146;860659;-60
2021/08/06 02:34:32;;;;;;;1.77;1.01;;;;;;;;;;352610;149;858551;-60
2021/08/06 02:35:34;;;;;;;5.09;1.50;;;;;;;;;;350401;150;857283;-61
2021/08/06 02:36:37;;;;;;;2.19;1.18;;;;;;;;;;353080;152;857391;-61
2021/08/06 02:37:41;;;;;;;2.97;1.18;;;;;;;;;;359059;149;857472;-61
2021/08/06 02:38:42;;;;;;;2.06;1.19;;;;;;;;;;357543;147;859515;-60
2021/08/06 02:39:43;;;;;;;4.53;1.24;;;;;;;;;;355029;149;856429;-61
2021/08/06 02:40:45;;;;;;;3.90;1.17;;;;;;;;;;356509;148;864630;-60
2021/08/06 02:41:47;;;;;;;5.61;1.32;;;;;;;;;;359016;149;857644;-60
2021/08/06 02:42:48;;;;;;;2.64;1.30;;;;;;;;;;358930;147;857183;-60
2021/08/06 02:43:50;;;;;;;2.10;0.97;;;;;;;;;;349570;152;857173;-60
2021/08/06 02:44:52;;;;;;;3.90;1.44;;;;;;;;;;356530;149;857304;-60
2021/08/06 02:45:53;;;;;;;2.52;1.22;;;;;;;;;;352774;151;857300;-61
2021/08/06 02:46:55;;;;;;;2.66;1.36;;;;;;;;;;347136;152;857324;-61
2021/08/06 02:47:56;;;;;;;3.82;1.41;;;;;;;;;;347732;149;864907;-60
2021/08/06 02:48:58;;;;;;;4.48;1.55;;;;;;;;;;353168;149;857268;-61
2021/08/06 02:49:59;;;;;;;4.19;1.00;;;;;;;;;;353317;150;860376;-60
2021/08/06 02:51:01;;;;;;;6.29;1.51;;;;;;;;;;357695;149;858880;-60
2021/08/06 02:52:08;;;;;;;2.96;1.29;;;;;;;;;;357940;149;865508;-60
2021/08/06 02:53:07;;;;;;;3.41;1.42;;;;;;;;;;356796;149;864490;-61
2021/08/06 02:54:09;;;;;;;2.94;1.46;;;;;;;;;;357370;147;857220;-61
2021/08/06 02:55:11;;;;;;;2.42;1.21;;;;;;;;;;357290;149;865285;-60
2021/08/06 02:56:12;;;;;;;2.13;1.32;;;;;;;;;;358911;149;866586;-61
2021/08/06 02:57:14;;;;;;;2.47;1.40;;;;;;;;;;357929;147;857251;-62
2021/08/06 02:58:15;;;;;;;2.22;1.29;;;;;;;;;;357215;148;857275;-61
2021/08/06 02:59:17;;;;;;;3.79;1.43;;;;;;;;;;356398;149;857281;-61
2021/08/06 03:00:20;;;;;;;3.82;1.50;;;;;;;;;;357558;148;857405;-61
2021/08/06 03:01:21;;;;;;;3.84;1.64;;;;;;;;;;356607;147;857305;-60
2021/08/06 03:02:23;;;;;;;2.29;1.27;;;;;;;;;;355608;149;857246;-61
2021/08/06 03:03:24;;;;;;;4.80;1.36;;;;;;;;;;356619;149;866625;-62
2021/08/06 03:04:26;;;;;;;5.59;1.66;;;;;;;;;;357708;147;859019;-61
2021/08/06 03:05:27;;;;;;;3.94;1.51;;;;;;;;;;358838;149;857747;-60
2021/08/06 03:06:31;;;;;;;2.34;1.20;;;;;;;;;;357816;148;860304;-60
2021/08/06 03:07:33;;;;;;;6.87;1.46;;;;;;;;;;359804;148;857337;-61
2021/08/06 03:08:34;;;;;;;4.32;1.33;;;;;;;;;;357818;147;865877;-61
2021/08/06 03:09:36;;;;;;;2.12;1.34;;;;;;;;;;356535;149;857493;-61
2021/08/06 03:10:38;;;;;;;3.97;1.37;;;;;;;;;;356119;149;864900;-61
2021/08/06 03:11:39;;;;;;;5.07;1.33;;;;;;;;;;358822;147;864599;-61
2021/08/06 03:12:41;;;;;;;2.59;1.23;;;;;;;;;;355389;147;857399;-61
2021/08/06 03:13:42;;;;;;;4.06;1.22;;;;;;;;;;357539;149;857535;-61
2021/08/06 03:14:44;;;;;;;3.26;1.46;;;;;;;;;;357364;149;857382;-59
2021/08/06 03:15:46;;;;;;;1.46;1.01;;;;;;;;;;356887;147;857397;-63
2021/08/06 03:16:49;;;;;;;2.58;1.17;;;;;;;;;;356314;149;857225;-64
2021/08/06 03:17:51;;;;;;;2.29;1.28;;;;;;;;;;357577;149;857188;-62
2021/08/06 03:18:52;;;;;;;2.70;1.45;;;;;;;;;;358373;148;857501;-63
2021/08/06 03:19:54;;;;;;;4.17;1.43;;;;;;;;;;357616;149;858431;-64
2021/08/06 03:20:56;;;;;;;3.65;1.83;;;;;;;;;;358955;148;860241;-64
2021/08/06 03:21:58;;;;;;;2.84;1.61;;;;;;;;;;359450;148;858725;-62
2021/08/06 03:22:59;;;;;;;1.76;1.16;;;;;;;;;;359194;147;859888;-63
2021/08/06 03:24:01;;;;;;;3.26;1.56;;;;;;;;;;356147;147;866422;-62
2021/08/06 03:25:03;;;;;;;4.97;1.51;;;;;;;;;;356144;149;857443;-63
2021/08/06 03:26:05;;;;;;;3.12;1.39;;;;;;;;;;357449;148;857465;-64
2021/08/06 03:27:06;;;;;;;4.81;1.34;;;;;;;;;;357249;148;865320;-63
2021/08/06 03:28:08;;;;;;;4.00;1.70;;;;;;;;;;355207;149;857184;-64
2021/08/06 03:29:10;;;;;;;3.17;1.35;;;;;;;;;;354915;149;857176;-64
2021/08/06 03:30:12;;;;;;;5.31;1.79;;;;;;;;;;353669;149;864685;-63
2021/08/06 03:31:14;;;;;;;4.47;1.61;;;;;;;;;;354897;150;857369;-64
2021/08/06 03:32:15;;;;;;;2.96;1.13;;;;;;;;;;353145;150;857250;-64
2021/08/06 03:33:17;;;;;;;7.34;1.87;;;;;;;;;;352621;149;857252;-62
2021/08/06 03:34:19;;;;;;;3.97;1.65;;;;;;;;;;353561;149;857246;-63
2021/08/06 03:35:20;;;;;;;5.59;1.55;;;;;;;;;;354023;149;857235;-64
2021/08/06 03:36:22;;;;;;;3.98;1.62;;;;;;;;;;349371;152;859721;-64
2021/08/06 03:37:24;;;;;;;4.66;1.74;;;;;;;;;;359527;147;858994;-66
2021/08/06 03:38:25;;;;;;;5.68;1.56;;;;;;;;;;355147;147;858215;-65
2021/08/06 03:39:27;;;;;;;7.08;1.59;;;;;;;;;;357631;149;857863;-63
2021/08/06 03:40:29;;;;;;;3.75;1.58;;;;;;;;;;356511;147;857322;-63
2021/08/06 03:41:31;;;;;;;3.91;1.35;;;;;;;;;;357699;147;857393;-63
2021/08/06 03:42:33;;;;;;;3.16;1.56;;;;;;;;;;360232;149;857404;-63
2021/08/06 03:43:34;;;;;;;4.84;1.46;;;;;;;;;;360945;148;867588;-64
2021/08/06 03:44:36;;;;;;;3.92;1.57;;;;;;;;;;357200;147;859770;-61
2021/08/06 03:45:37;;;;;;;3.00;1.23;;;;;;;;;;357547;147;857955;-63
2021/08/06 03:46:40;;;;;;;4.67;1.56;;;;;;;;;;353852;150;857403;-64
2021/08/06 03:47:42;;;;;;;4.94;1.34;;;;;;;;;;348148;150;857490;-62
2021/08/06 03:48:44;;;;;;;3.49;1.61;;;;;;;;;;357377;149;856570;-63
2021/08/06 03:49:45;;;;;;;3.38;1.51;;;;;;;;;;354493;151;857362;-61
2021/08/06 03:50:48;;;;;;;3.32;1.45;;;;;;;;;;358442;149;858096;-61
2021/08/06 03:51:50;;;;;;;6.64;1.60;;;;;;;;;;355537;147;857235;-62
2021/08/06 03:52:52;;;;;;;4.26;1.72;;;;;;;;;;357461;147;858230;-63
2021/08/06 03:53:53;;;;;;;5.50;1.67;;;;;;;;;;354905;149;857456;-64
2021/08/06 03:54:55;;;;;;;3.85;1.34;;;;;;;;;;358898;147;864799;-63
2021/08/06 03:55:56;;;;;;;4.28;1.89;;;;;;;;;;357088;147;857275;-61
2021/08/06 03:56:58;;;;;;;3.64;1.58;;;;;;;;;;356412;149;857350;-62
2021/08/06 03:58:00;;;;;;;5.46;1.56;;;;;;;;;;354739;149;857776;-61
2021/08/06 03:59:02;;;;;;;3.96;1.40;;;;;;;;;;356288;147;859345;-64
2021/08/06 04:00:04;;;;;;;4.77;1.54;;;;;;;;;;353641;149;864472;-62
2021/08/06 04:01:06;;;;;;;4.28;1.83;;;;;;;;;;353725;148;864801;-63
2021/08/06 04:02:07;;;;;;;1.88;1.44;;;;;;;;;;350841;150;858176;-63
2021/08/06 04:03:09;;;;;;;5.81;1.75;;;;;;;;;;356817;147;857250;-62
2021/08/06 04:04:10;;;;;;;11.76;1.94;;;;;;;;;;357213;147;857219;-61
2021/08/06 04:05:12;;;;;;;6.07;1.91;;;;;;;;;;357969;149;864873;-65
2021/08/06 04:06:14;;;;;;;5.03;1.75;;;;;;;;;;349775;151;857200;-64
2021/08/06 04:07:16;;;;;;;4.45;1.41;;;;;;;;;;352779;150;857212;-64
2021/08/06 04:08:17;;;;;;;6.26;1.87;;;;;;;;;;351545;149;857335;-66
2021/08/06 04:09:19;;;;;;;4.63;2.31;;;;;;;;;;351397;149;857219;-63
2021/08/06 04:10:22;;;;;;;6.17;1.54;;;;;;;;;;357030;148;857812;-64
2021/08/06 04:11:24;;;;;;;4.94;1.58;;;;;;;;;;356906;147;857288;-64
2021/08/06 04:12:26;;;;;;;6.37;1.61;;;;;;;;;;359201;149;857480;-64
2021/08/06 04:13:27;;;;;;;3.72;1.81;;;;;;;;;;358508;147;865518;-64
2021/08/06 04:14:29;;;;;;;2.86;1.61;;;;;;;;;;357034;147;857227;-63
2021/08/06 04:15:30;;;;;;;5.13;1.79;;;;;;;;;;354992;148;857195;-60
2021/08/06 04:16:33;;;;;;;4.08;1.66;;;;;;;;;;357091;149;857355;-63
2021/08/06 04:17:35;;;;;;;2.72;1.44;;;;;;;;;;354470;149;857328;-62
2021/08/06 04:18:37;;;;;;;7.24;1.79;;;;;;;;;;352763;150;857366;-64
2021/08/06 04:19:38;;;;;;;4.03;1.54;;;;;;;;;;360622;149;859236;-64
2021/08/06 04:20:41;;;;;;;4.71;1.51;;;;;;;;;;357994;148;859210;-61
2021/08/06 04:21:42;;;;;;;6.23;1.66;;;;;;;;;;348481;151;864788;-64
2021/08/06 04:22:44;;;;;;;4.05;1.96;;;;;;;;;;354498;149;859120;-62
2021/08/06 04:23:46;;;;;;;4.08;1.68;;;;;;;;;;357466;149;857524;-67
2021/08/06 04:24:47;;;;;;;5.02;1.90;;;;;;;;;;352607;149;859583;-65
2021/08/06 04:25:50;;;;;;;3.63;1.65;;;;;;;;;;358401;147;864714;-64
2021/08/06 04:26:52;;;;;;;9.18;2.25;;;;;;;;;;353619;151;864521;-66
2021/08/06 04:27:54;;;;;;;3.58;1.75;;;;;;;;;;352369;150;857254;-66
2021/08/06 04:28:55;;;;;;;4.67;1.86;;;;;;;;;;351921;149;857301;-64
2021/08/06 04:29:57;;;;;;;4.89;1.91;;;;;;;;;;352262;150;859044;-66
2021/08/06 04:31:00;;;;;;;3.89;1.87;;;;;;;;;;348923;152;858902;-67
2021/08/06 04:32:02;;;;;;;3.77;1.69;;;;;;;;;;357600;147;859341;-65
2021/08/06 04:33:04;;;;;;;5.45;1.85;;;;;;;;;;357099;148;857325;-66
2021/08/06 04:34:06;;;;;;;4.75;1.56;;;;;;;;;;356447;149;857382;-66
2021/08/06 04:35:08;;;;;;;2.24;1.41;;;;;;;;;;356411;149;858877;-67
2021/08/06 04:36:10;;;;;;;3.79;1.77;;;;;;;;;;358288;148;857778;-64
2021/08/06 04:37:11;;;;;;;4.24;1.65;;;;;;;;;;357490;147;857281;-65
2021/08/06 04:38:13;;;;;;;5.71;1.96;;;;;;;;;;357892;149;864759;-65
2021/08/06 04:39:14;;;;;;;3.04;1.52;;;;;;;;;;357795;147;857342;-64
2021/08/06 04:40:18;;;;;;;5.56;1.71;;;;;;;;;;358936;147;857264;-64
2021/08/06 04:41:19;;;;;;;2.75;1.43;;;;;;;;;;358842;147;857235;-62
2021/08/06 04:42:21;;;;;;;6.09;1.71;;;;;;;;;;358966;147;857302;-64
2021/08/06 04:43:23;;;;;;;2.50;1.46;;;;;;;;;;357983;147;858991;-63
2021/08/06 04:44:24;;;;;;;7.11;1.81;;;;;;;;;;357885;148;859082;-65
2021/08/06 04:45:26;;;;;;;3.48;1.64;;;;;;;;;;358593;149;864706;-66
2021/08/06 04:46:28;;;;;;;6.95;2.14;;;;;;;;;;359466;148;857163;-66
2021/08/06 04:47:30;;;;;;;3.25;1.96;;;;;;;;;;357822;149;865357;-67
2021/08/06 04:48:31;;;;;;;3.51;1.59;;;;;;;;;;358992;147;858169;-66
2021/08/06 04:49:33;;;;;;;6.70;1.87;;;;;;;;;;359208;149;858943;-66
2021/08/06 04:50:35;;;;;;;6.09;1.78;;;;;;;;;;357957;147;859912;-66
2021/08/06 04:51:37;;;;;;;4.27;1.74;;;;;;;;;;356900;147;857286;-66
2021/08/06 04:52:39;;;;;;;4.63;1.83;;;;;;;;;;356897;149;857374;-67
2021/08/06 04:53:41;;;;;;;4.29;1.72;;;;;;;;;;359068;147;857527;-67
2021/08/06 04:54:42;;;;;;;7.48;1.78;;;;;;;;;;356461;148;866520;-67
2021/08/06 04:55:44;;;;;;;4.58;1.57;;;;;;;;;;355309;147;857810;-67
2021/08/06 04:56:47;;;;;;;4.81;1.87;;;;;;;;;;354469;151;859380;-66
2021/08/06 04:57:50;;;;;;;3.32;1.63;;;;;;;;;;358862;147;858000;-66
2021/08/06 04:58:51;;;;;;;3.88;1.53;;;;;;;;;;356786;148;857167;-66
2021/08/06 04:59:53;;;;;;;4.36;1.59;;;;;;;;;;359239;147;859153;-65
2021/08/06 05:00:55;;;;;;;5.71;1.41;;;;;;;;;;357695;149;857342;-66
2021/08/06 05:01:57;;;;;;;6.91;1.52;;;;;;;;;;355101;149;857738;-65
2021/08/06 05:02:58;;;;;;;4.05;1.51;;;;;;;;;;350985;149;864950;-65
2021/08/06 05:04:00;;;;;;;6.40;1.75;;;;;;;;;;353899;151;857377;-66
2021/08/06 05:05:03;;;;;;;5.30;1.78;;;;;;;;;;349916;151;858792;-64
2021/08/06 05:06:05;;;;;;;3.37;1.37;;;;;;;;;;353599;149;859074;-66
2021/08/06 05:07:06;;;;;;;4.88;2.01;;;;;;;;;;353351;149;858230;-66
2021/08/06 05:08:08;;;;;;;5.66;1.67;;;;;;;;;;350267;151;859175;-66
2021/08/06 05:09:09;;;;;;;4.72;1.72;;;;;;;;;;347990;152;865048;-65
2021/08/06 05:10:12;;;;;;;3.39;1.84;;;;;;;;;;355475;148;866934;-66
2021/08/06 05:11:13;;;;;;;4.11;1.64;;;;;;;;;;355282;149;858215;-65
2021/08/06 05:12:15;;;;;;;4.03;1.86;;;;;;;;;;356977;149;864760;-66
2021/08/06 05:13:17;;;;;;;3.66;1.51;;;;;;;;;;352451;151;857282;-65
2021/08/06 05:14:18;;;;;;;3.15;1.26;;;;;;;;;;354886;149;857327;-65
2021/08/06 05:15:20;;;;;;;3.48;1.90;;;;;;;;;;357413;149;857282;-66
2021/08/06 05:16:22;;;;;;;3.81;1.44;;;;;;;;;;356984;147;859408;-66
2021/08/06 05:17:23;;;;;;;2.90;1.76;;;;;;;;;;356653;147;859994;-66
2021/08/06 05:18:25;;;;;;;3.80;1.38;;;;;;;;;;359011;149;858776;-65
2021/08/06 05:19:26;;;;;;;6.49;1.58;;;;;;;;;;358871;148;857264;-66
2021/08/06 05:20:29;;;;;;;3.92;1.41;;;;;;;;;;358754;147;857270;-66
2021/08/06 05:21:30;;;;;;;5.26;1.53;;;;;;;;;;355634;148;857187;-65
2021/08/06 05:22:32;;;;;;;4.27;2.14;;;;;;;;;;357810;149;864759;-68
2021/08/06 05:23:33;;;;;;;4.05;1.54;;;;;;;;;;357331;147;857428;-65
2021/08/06 05:24:35;;;;;;;5.22;1.73;;;;;;;;;;357799;147;859250;-65
2021/08/06 05:25:36;;;;;;;3.30;1.87;;;;;;;;;;358368;149;859560;-65
2021/08/06 05:26:39;;;;;;;4.34;1.74;;;;;;;;;;354705;148;857392;-65
2021/08/06 05:27:43;;;;;;;3.68;1.94;;;;;;;;;;357937;147;857822;-65
2021/08/06 05:28:44;;;;;;;3.52;1.93;;;;;;;;;;357456;147;858237;-65
2021/08/06 05:29:45;;;;;;;5.39;1.64;;;;;;;;;;359363;149;859127;-67
2021/08/06 05:30:48;;;;;;;3.85;1.29;;;;;;;;;;359380;148;859310;-65
2021/08/06 05:31:50;;;;;;;5.39;1.40;;;;;;;;;;349309;150;865036;-64
2021/08/06 05:32:51;;;;;;;3.86;1.89;;;;;;;;;;352779;150;857172;-69
2021/08/06 05:33:53;;;;;;;4.19;1.79;;;;;;;;;;357579;149;857347;-64
2021/08/06 05:34:54;;;;;;;5.00;1.84;;;;;;;;;;350525;150;857313;-62
2021/08/06 05:35:56;;;;;;;4.96;1.86;;;;;;;;;;354313;149;857369;-63
2021/08/06 05:36:59;;;;;;;11.67;2.12;;;;;;;;;;344276;153;859527;-63
2021/08/06 05:38:00;;;;;;;6.60;1.62;;;;;;;;;;351093;152;858322;-65
2021/08/06 05:39:02;;;;;;;3.04;1.57;;;;;;;;;;353912;150;858288;-63
2021/08/06 05:40:05;;;;;;;2.69;1.77;;;;;;;;;;345874;153;858297;-65
2021/08/06 05:41:06;;;;;;;3.64;1.55;;;;;;;;;;347398;154;858242;-63
2021/08/06 05:42:08;;;;;;;4.56;1.91;;;;;;;;;;346886;152;859200;-65
2021/08/06 05:43:10;;;;;;;3.77;1.64;;;;;;;;;;352945;149;858962;-62
2021/08/06 05:44:11;;;;;;;5.84;2.01;;;;;;;;;;354218;151;857565;-63
2021/08/06 05:45:13;;;;;;;7.21;1.98;;;;;;;;;;354080;149;857847;-66
2021/08/06 05:46:16;;;;;;;5.34;1.74;;;;;;;;;;355353;150;864843;-65
2021/08/06 05:47:17;;;;;;;2.55;1.49;;;;;;;;;;354960;150;860390;-65
2021/08/06 05:48:19;;;;;;;4.56;1.59;;;;;;;;;;354478;151;864538;-65
2021/08/06 05:49:21;;;;;;;5.34;1.95;;;;;;;23.10;100.00;64710.75;352923;149;857657;-66
2021/08/06 05:50:26;;;;;;;3.18;1.43;;;;;;;;;;354007;150;857375;-62
2021/08/06 05:51:28;;;;;;;4.94;1.44;;;;;;;;;;346575;152;857324;-65
2021/08/06 05:52:29;;;;;;;5.60;2.03;;;;;;;;;;346635;151;858747;-63
2021/08/06 05:53:31;;;;;;;3.16;1.70;;;;;;;;;;346944;152;857389;-62
2021/08/06 05:54:32;;;;;;;2.34;1.23;;;;;;;;;;353004;150;859096;-62
2021/08/06 05:55:34;;;;;;;2.32;1.21;;;;;;;;;;355137;151;858548;-64
2021/08/06 05:56:37;;;;;;;3.75;1.80;;;;;;;;;;355816;149;857641;-66
2021/08/06 05:57:39;;;;;;;3.95;1.52;;;;;;;;;;354927;150;857831;-64
2021/08/06 05:58:41;;;;;;;4.46;1.95;;;;;;;;;;355210;151;863411;-66
2021/08/06 05:59:43;;;;;;;3.08;1.53;;;;;;;;;;352861;149;857317;-66
2021/08/06 06:00:46;;;;;;;3.04;1.56;;;;;;;;;;353771;149;857342;-68
2021/08/06 06:01:47;;;;;;;5.09;1.84;;;;;;;;;;353117;150;857207;-65
2021/08/06 06:02:49;;;;;;;5.59;1.88;;;;;;;;;;354375;151;865577;-65
2021/08/06 06:03:50;;;;;;;2.46;1.48;;;;;;;;;;349175;153;859014;-66
2021/08/06 06:04:52;;;;;;;3.64;1.71;;;;;;;;;;346638;153;857379;-64
2021/08/06 06:05:54;;;;;;;4.58;1.59;;;;;;;;;;346955;152;857313;-66
2021/08/06 06:06:56;;;;;;;5.77;2.15;;;;;;;;;;353005;151;857461;-66
2021/08/06 06:07:57;;;;;;;6.06;1.79;;;;;;;;;;349691;152;857351;-67
2021/08/06 06:08:59;;;;;;;3.96;1.91;;;;;;;;;;354064;150;857275;-66